Terminal Aerodrome Forecast
Issued by NWS

Home | Current Version | Previous Version | Text Only | Print | Product List | Glossary On
Versions: 1 2 3 4 5 6 7 8 9 10 11 12 13 14 15 16 17 18 19 20 21 22 23 24 25 26
000
FTUS44 KLZK 191300 AAA
TAFLIT
TAF AMD
KLIT 191305Z 1913/2012 26005KT P6SM BKN015 OVC050
      TEMPO 1914/1917 -SHRA OVC025
     FM191700 23007KT P6SM VCTS SCT020CB BKN250
     FM200200 22008KT 5SM TSRA BKN025CB OVC070
     FM200700 29009KT P6SM BKN025=

USA.gov is the U.S. government's official web portal to all federal, state and local government web resources and services.